Time;durP1;ratioP1;P1;durP2;ratioP2;P2;SDS_P1;SDS_P2;PMS_P1;PMS_P2;Temp;Humidity;BMP_temperature;BMP_pressure;BME280_temperature;BME280_humidity;BME280_pressure;Samples;Min_cycle;Max_cycle;Signal;HPM_P1;HPM_P2
2021/03/20 00:01:25;;;;;;;167.63;100.50;;;17.50;49.00;;;;;;5034528;28;20385;-64
2021/03/20 00:03:51;;;;;;;170.75;99.70;;;17.50;49.00;;;;;;5034542;28;20032;-63
2021/03/20 00:06:21;;;;;;;167.68;100.68;;;17.50;48.90;;;;;;5034617;28;20033;-62
2021/03/20 00:08:49;;;;;;;160.63;98.72;;;17.50;49.00;;;;;;5034099;28;20029;-62
2021/03/20 00:11:16;;;;;;;161.57;96.00;;;17.50;49.20;;;;;;5032602;28;20485;-63
2021/03/20 00:13:42;;;;;;;162.75;99.82;;;17.40;49.20;;;;;;5033761;28;20067;-62
2021/03/20 00:16:09;;;;;;;164.00;94.75;;;17.30;49.20;;;;;;5033016;28;20022;-62
2021/03/20 00:18:35;;;;;;;155.45;91.75;;;17.30;49.40;;;;;;5034166;28;20026;-62
2021/03/20 00:21:01;;;;;;;153.85;90.03;;;17.20;49.90;;;;;;5034344;28;20374;-62
2021/03/20 00:23:27;;;;;;;141.85;86.53;;;17.20;49.70;;;;;;5034152;28;20029;-63
2021/03/20 00:25:53;;;;;;;148.68;88.13;;;17.20;49.80;;;;;;5034428;28;20088;-63
2021/03/20 00:28:23;;;;;;;140.77;86.78;;;17.20;50.10;;;;;;5034093;28;20104;-63
2021/03/20 00:30:55;;;;;;;143.03;86.77;;;17.10;50.20;;;;;;5034190;28;20029;-63
2021/03/20 00:33:21;;;;;;;141.02;86.30;;;17.10;50.20;;;;;;5034021;28;20025;-62
2021/03/20 00:35:47;;;;;;;142.38;83.75;;;17.10;50.30;;;;;;5033844;28;20112;-62
2021/03/20 00:38:13;;;;;;;137.98;82.15;;;17.10;50.30;;;;;;5032765;28;20437;-62
2021/03/20 00:40:40;;;;;;;134.80;81.18;;;17.10;50.40;;;;;;5033678;28;20029;-63
2021/03/20 00:43:05;;;;;;;130.55;82.05;;;17.10;50.50;;;;;;5033754;28;20144;-62
2021/03/20 00:45:32;;;;;;;138.13;83.93;;;17.00;51.10;;;;;;5033884;28;20089;-62
2021/03/20 00:48:11;;;;;;;128.13;80.03;;;17.00;50.60;;;;;;5033539;28;20465;-63
2021/03/20 00:50:38;;;;;;;131.35;78.63;;;17.00;50.60;;;;;;5033602;28;20035;-63
2021/03/20 00:53:03;;;;;;;127.47;75.57;;;17.00;50.70;;;;;;5033269;28;20061;-65
2021/03/20 00:55:32;;;;;;;115.63;71.85;;;17.00;50.30;;;;;;5033714;28;20531;-63
2021/03/20 00:57:58;;;;;;;119.53;70.22;;;17.10;50.30;;;;;;5033618;28;20022;-62
2021/03/20 01:00:27;;;;;;;119.82;69.40;;;17.20;50.00;;;;;;5033462;28;20420;-62
2021/03/20 01:02:53;;;;;;;112.60;67.60;;;17.30;49.60;;;;;;5035769;28;20485;-62
2021/03/20 01:05:20;;;;;;;115.43;66.68;;;17.30;49.30;;;;;;5033354;28;20048;-61
2021/03/20 01:07:46;;;;;;;115.20;67.03;;;17.40;49.10;;;;;;5033287;28;20059;-63
2021/03/20 01:10:21;;;;;;;111.88;65.18;;;17.50;49.00;;;;;;5033283;28;20025;-62
2021/03/20 01:12:47;;;;;;;108.03;63.97;;;17.60;48.80;;;;;;5033420;28;20029;-62
2021/03/20 01:15:14;;;;;;;108.72;65.30;;;17.60;48.50;;;;;;5033265;28;20060;-62
2021/03/20 01:17:40;;;;;;;110.70;65.65;;;17.70;48.30;;;;;;5033278;28;20073;-62
2021/03/20 01:20:08;;;;;;;109.93;62.13;;;17.70;48.20;;;;;;5032216;28;20473;-62
2021/03/20 01:22:33;;;;;;;104.63;61.72;;;17.80;48.10;;;;;;5033015;28;20038;-62
2021/03/20 01:24:59;;;;;;;104.32;60.17;;;17.80;48.00;;;;;;5033310;28;20511;-62
2021/03/20 01:27:25;;;;;;;96.93;58.28;;;17.80;47.90;;;;;;5032712;28;20021;-62
2021/03/20 01:29:50;;;;;;;97.00;56.40;;;17.80;47.90;;;;;;5033031;28;20053;-63
2021/03/20 01:32:16;;;;;;;100.10;58.05;;;17.80;47.80;;;;;;5032678;28;20037;-62
2021/03/20 01:34:42;;;;;;;96.32;55.85;;;17.80;47.80;;;;;;5032797;28;20025;-62
2021/03/20 01:37:08;;;;;;;82.22;52.13;;;17.70;47.80;;;;;;5032879;28;20060;-62
2021/03/20 01:39:34;;;;;;;92.95;55.30;;;17.70;47.90;;;;;;5033079;28;20026;-62
2021/03/20 01:42:04;;;;;;;93.93;54.63;;;17.70;47.90;;;;;;5033010;28;20473;-62
2021/03/20 01:44:30;;;;;;;;;;;17.60;47.90;;;;;;5033456;28;20030;-62
2021/03/20 01:46:56;;;;;;;85.90;47.38;;;17.60;48.00;;;;;;5032766;28;19948;-63
2021/03/20 01:49:41;;;;;;;88.68;49.20;;;17.60;48.00;;;;;;5032698;28;20025;-62
2021/03/20 01:52:13;;;;;;;81.60;49.35;;;17.60;48.00;;;;;;5032656;28;20032;-62
2021/03/20 01:54:56;;;;;;;86.25;50.85;;;17.60;48.00;;;;;;5032610;28;20050;-63
2021/03/20 01:57:34;;;;;;;82.18;46.60;;;17.60;48.10;;;;;;5032815;28;20029;-63
2021/03/20 02:00:06;;;;;;;81.75;47.53;;;17.50;48.10;;;;;;5032909;28;20032;-63
2021/03/20 02:02:34;;;;;;;82.97;48.28;;;17.50;48.10;;;;;;5032772;28;20034;-63
2021/03/20 02:04:59;;;;;;;80.07;47.75;;;17.50;48.10;;;;;;5032673;28;20026;-63
2021/03/20 02:07:25;;;;;;;79.40;46.15;;;17.60;48.10;;;;;;5032736;28;20033;-63
2021/03/20 02:09:51;;;;;;;76.05;43.42;;;17.60;47.90;;;;;;5032628;28;20030;-63
2021/03/20 02:12:28;;;;;;;75.38;44.58;;;17.70;47.90;;;;;;5030613;28;20132;-63
2021/03/20 02:15:01;;;;;;;69.97;42.38;;;17.70;47.90;;;;;;5029681;28;20033;-63
2021/03/20 02:17:33;;;;;;;75.30;43.67;;;17.70;48.00;;;;;;5030760;28;20026;-63
2021/03/20 02:20:17;;;;;;;69.07;42.58;;;17.70;47.80;;;;;;5031208;28;20029;-62
2021/03/20 02:23:04;;;;;;;70.10;42.55;;;17.60;47.70;;;;;;5032357;28;20135;-62
2021/03/20 02:26:00;;;;;;;71.20;40.75;;;17.50;47.80;;;;;;5032428;28;20412;-62
2021/03/20 02:29:03;;;;;;;72.18;41.95;;;17.50;47.90;;;;;;5032407;28;20104;-62
2021/03/20 02:31:40;;;;;;;63.92;37.88;;;17.40;48.00;;;;;;5035025;28;20116;-62
2021/03/20 02:34:30;;;;;;;62.92;39.30;;;17.40;48.10;;;;;;5036252;28;20028;-62
2021/03/20 02:37:04;;;;;;;68.13;37.93;;;17.30;48.10;;;;;;5036379;28;20040;-62
2021/03/20 02:39:59;;;;;;;67.75;41.05;;;17.30;48.20;;;;;;5036198;28;20351;-62
2021/03/20 02:42:40;;;;;;;64.43;38.35;;;17.30;48.30;;;;;;5026723;28;20083;-62
2021/03/20 02:45:18;;;;;;;;;;;17.30;48.30;;;;;;5036526;28;20042;-62
2021/03/20 02:47:50;;;;;;;57.25;34.00;;;17.30;48.30;;;;;;5036208;28;19909;-62
2021/03/20 02:50:22;;;;;;;62.47;37.08;;;17.20;48.30;;;;;;5035925;28;20033;-62
2021/03/20 02:53:11;;;;;;;62.10;38.20;;;17.20;48.30;;;;;;5035789;28;20025;-62
2021/03/20 02:55:43;;;;;;;59.70;35.55;;;17.20;48.30;;;;;;5035919;28;20030;-62
2021/03/20 02:58:40;;;;;;;57.72;34.13;;;17.10;48.20;;;;;;5035900;28;20127;-62
2021/03/20 03:01:11;;;;;;;54.45;31.13;;;17.20;48.30;;;;;;5033340;28;20128;-62
2021/03/20 03:03:40;;;;;;;53.25;34.22;;;17.10;48.40;;;;;;5035675;28;20029;-62
2021/03/20 03:06:09;;;;;;;56.80;34.40;;;17.10;48.60;;;;;;5035567;28;20025;-62
2021/03/20 03:08:41;;;;;;;54.90;31.42;;;17.10;48.50;;;;;;5034554;28;20029;-62
2021/03/20 03:11:22;;;;;;;60.35;33.25;;;17.20;48.30;;;;;;5035439;28;20033;-62
2021/03/20 03:14:14;;;;;;;;;;;17.50;47.90;;;;;;5035999;28;20030;-62
2021/03/20 03:16:48;;;;;;;50.95;29.95;;;17.70;47.40;;;;;;5026601;28;20103;-62
2021/03/20 03:19:24;;;;;;;53.75;29.33;;;17.80;47.00;;;;;;5035509;28;20029;-62
2021/03/20 03:21:54;;;;;;;47.53;28.95;;;18.10;46.80;;;;;;5035541;28;20099;-62
2021/03/20 03:24:24;;;;;;;49.90;29.42;;;18.10;46.60;;;;;;5035174;28;20036;-62
2021/03/20 03:27:03;;;;;;;53.10;29.65;;;18.20;46.50;;;;;;5035339;28;20064;-62
2021/03/20 03:29:31;;;;;;;49.35;27.60;;;18.20;46.30;;;;;;5035251;28;20045;-62
2021/03/20 03:32:01;;;;;;;44.58;27.73;;;18.20;46.40;;;;;;5035276;28;20128;-62
2021/03/20 03:34:42;;;;;;;43.33;25.95;;;18.20;46.40;;;;;;5035068;28;20529;-62
2021/03/20 03:37:17;;;;;;;44.53;27.13;;;18.20;46.50;;;;;;5034991;28;20419;-62
2021/03/20 03:39:51;;;;;;;44.95;28.23;;;18.10;46.50;;;;;;5035217;28;20037;-62
2021/03/20 03:42:19;;;;;;;45.85;27.23;;;18.10;46.50;;;;;;5033815;28;20120;-62
2021/03/20 03:44:47;;;;;;;44.83;27.25;;;18.10;46.60;;;;;;5035012;28;20021;-62
2021/03/20 03:47:23;;;;;;;46.20;26.13;;;18.10;46.60;;;;;;5034624;28;20044;-62
2021/03/20 03:49:54;;;;;;;46.17;25.85;;;18.00;46.60;;;;;;5034705;28;20033;-62
2021/03/20 03:52:19;;;;;;;41.42;25.55;;;18.00;46.70;;;;;;5034837;28;20413;-62
2021/03/20 03:54:45;;;;;;;46.33;26.33;;;18.00;46.80;;;;;;5034869;28;20064;-62
2021/03/20 03:57:11;;;;;;;40.45;24.73;;;18.00;46.80;;;;;;5034724;28;20118;-62
2021/03/20 03:59:47;;;;;;;38.00;23.30;;;17.90;46.80;;;;;;5034566;28;20021;-62
2021/03/20 04:02:21;;;;;;;37.20;23.42;;;17.90;46.90;;;;;;5034545;28;20036;-62
2021/03/20 04:05:05;;;;;;;39.67;22.63;;;17.90;47.00;;;;;;5034827;28;20031;-62
2021/03/20 04:07:52;;;;;;;40.60;23.00;;;17.80;47.10;;;;;;5034553;28;20029;-62
2021/03/20 04:10:25;;;;;;;36.08;21.77;;;17.80;47.10;;;;;;5034445;28;20516;-62
2021/03/20 04:13:09;;;;;;;35.05;21.52;;;17.80;47.20;;;;;;5033099;28;20079;-63
2021/03/20 04:15:54;;;;;;;36.60;20.88;;;17.80;47.20;;;;;;5030128;28;20439;-62
2021/03/20 04:18:43;;;;;;;33.88;19.92;;;17.70;47.30;;;;;;5032466;28;20033;-62
2021/03/20 04:21:30;;;;;;;35.30;20.92;;;17.80;47.10;;;;;;5013424;28;20042;-62
2021/03/20 04:24:10;;;;;;;38.38;19.65;;;17.90;46.90;;;;;;5034317;28;20041;-62
2021/03/20 04:26:45;;;;;;;32.08;19.40;;;18.00;46.70;;;;;;5034065;28;20033;-62
2021/03/20 04:29:22;;;;;;;35.45;20.42;;;17.90;46.70;;;;;;5034067;28;20026;-62
2021/03/20 04:31:57;;;;;;;32.55;19.35;;;17.90;46.70;;;;;;5034314;28;20072;-62
2021/03/20 04:34:30;;;;;;;35.17;21.48;;;17.80;47.00;;;;;;5033688;28;20100;-62
2021/03/20 04:37:01;;;;;;;33.35;19.98;;;17.80;47.10;;;;;;5032835;28;20030;-63
2021/03/20 04:39:31;;;;;;;31.98;17.77;;;17.70;47.20;;;;;;5034004;28;20026;-63
2021/03/20 04:41:57;;;;;;;29.05;17.60;;;17.60;47.80;;;;;;5033825;28;20029;-62
2021/03/20 04:44:24;;;;;;;30.67;19.02;;;17.60;47.30;;;;;;5033927;28;20037;-62
2021/03/20 04:46:50;;;;;;;29.85;18.58;;;17.50;47.40;;;;;;5033777;28;20041;-62
2021/03/20 04:49:38;;;;;;;29.70;17.88;;;17.50;47.50;;;;;;5033844;28;20025;-62
2021/03/20 04:52:13;;;;;;;32.20;18.67;;;17.40;47.50;;;;;;5033535;28;20083;-62
2021/03/20 04:54:39;;;;;;;27.55;16.58;;;17.40;47.60;;;;;;5033758;28;20141;-62
2021/03/20 04:57:34;;;;;;;29.80;16.50;;;17.40;47.90;;;;;;5033598;28;20108;-62
2021/03/20 05:00:15;;;;;;;26.95;16.88;;;17.40;47.70;;;;;;5033421;28;20029;-62
2021/03/20 05:02:50;;;;;;;26.98;16.80;;;17.30;47.70;;;;;;5033282;28;20034;-62
2021/03/20 05:05:23;;;;;;;28.70;15.70;;;17.30;47.80;;;;;;5033518;28;20464;-62
2021/03/20 05:07:52;;;;;;;27.25;15.70;;;17.30;47.80;;;;;;5033520;28;20022;-62
2021/03/20 05:10:46;;;;;;;26.83;15.95;;;17.20;47.80;;;;;;5032960;28;20040;-62
2021/03/20 05:13:32;;;;;;;26.95;17.25;;;17.20;47.90;;;;;;5015745;28;20057;-62
2021/03/20 05:16:07;;;;;;;24.13;13.82;;;17.20;47.90;;;;;;5033137;28;20022;-63
2021/03/20 05:18:32;;;;;;;28.20;16.63;;;17.20;47.90;;;;;;5033391;28;20560;-63
2021/03/20 05:20:58;;;;;;;28.70;15.60;;;17.20;47.90;;;;;;5033038;28;20030;-62
2021/03/20 05:23:24;;;;;;;23.75;14.50;;;17.20;47.90;;;;;;5032943;28;20065;-63
2021/03/20 05:25:49;;;;;;;24.00;13.55;;;17.10;47.80;;;;;;5033113;28;20033;-62
2021/03/20 05:28:15;;;;;;;25.27;14.90;;;17.10;47.90;;;;;;5032905;28;20048;-62
2021/03/20 05:30:41;;;;;;;27.67;14.68;;;17.20;48.10;;;;;;5033183;28;20033;-62
2021/03/20 05:33:07;;;;;;;25.60;14.65;;;17.10;48.00;;;;;;5032799;28;20104;-62
2021/03/20 05:35:32;;;;;;;20.75;13.32;;;17.30;48.10;;;;;;5032903;28;20045;-62
2021/03/20 05:37:58;;;;;;;22.98;14.07;;;17.50;47.50;;;;;;5032893;28;20029;-62
2021/03/20 05:40:33;;;;;;;22.05;13.75;;;17.70;47.10;;;;;;5032893;28;20477;-62
2021/03/20 05:43:31;;;;;;;21.55;12.88;;;17.70;47.10;;;;;;5033066;28;20030;-62
2021/03/20 05:46:06;;;;;;;20.58;13.10;;;17.80;47.00;;;;;;5032845;28;20507;-62
2021/03/20 05:48:42;;;;;;;21.23;12.18;;;17.80;46.80;;;;;;5032581;28;20108;-62
2021/03/20 05:51:34;;;;;;;23.38;12.27;;;17.90;46.70;;;;;;5032723;28;20037;-62
2021/03/20 05:54:47;;;;;;;22.55;12.65;;;18.00;46.60;;;;;;5032912;28;20085;-62
2021/03/20 05:57:45;;;;;;;24.25;11.68;;;18.10;46.50;;;;;;5029052;28;20042;-62
2021/03/20 06:00:29;;;;;;;20.40;12.60;;;18.10;46.50;;;;;;5024475;28;20037;-62
2021/03/20 06:03:30;;;;;;;18.10;11.00;;;18.10;46.50;;;;;;5032577;28;20458;-62
2021/03/20 06:06:41;;;;;;;19.30;10.82;;;18.10;46.50;;;;;;5034293;28;20030;-62
2021/03/20 06:09:30;;;;;;;17.45;10.43;;;18.10;46.50;;;;;;4995002;28;20027;-62
2021/03/20 06:12:01;;;;;;;19.70;10.52;;;18.10;46.40;;;;;;5034473;28;20389;-62
2021/03/20 06:15:04;;;;;;;18.33;10.32;;;18.10;46.50;;;;;;5035165;28;20041;-62
2021/03/20 06:18:05;;;;;;;15.90;9.73;;;18.00;46.50;;;;;;5034508;28;20481;-63
2021/03/20 06:20:56;;;;;;;17.85;10.38;;;18.00;46.50;;;;;;5035472;28;20091;-63
2021/03/20 06:23:58;;;;;;;15.68;9.75;;;18.00;46.60;;;;;;5036351;28;20444;-62
2021/03/20 06:26:37;;;;;;;17.95;10.45;;;18.00;46.70;;;;;;5036631;28;20041;-63
2021/03/20 06:29:07;;;;;;;14.23;8.88;;;18.00;46.60;;;;;;5036419;28;20478;-62
2021/03/20 06:31:42;;;;;;;13.43;8.40;;;18.00;46.70;;;;;;5036362;28;20040;-62
2021/03/20 06:34:13;;;;;;;14.20;9.07;;;17.90;46.60;;;;;;5036142;28;20310;-62
2021/03/20 06:37:01;;;;;;;18.38;9.40;;;17.90;46.90;;;;;;5036324;28;20493;-62
2021/03/20 06:39:29;;;;;;;15.98;9.15;;;18.00;46.60;;;;;;5036348;28;20028;-62
2021/03/20 06:42:06;;;;;;;14.93;8.25;;;18.00;46.50;;;;;;5036015;28;20346;-62
2021/03/20 06:44:41;;;;;;;16.05;9.23;;;18.10;46.40;;;;;;5035906;28;20034;-63
2021/03/20 06:47:22;;;;;;;14.02;9.43;;;18.10;46.30;;;;;;5036115;28;20102;-62
2021/03/20 06:49:53;;;;;;;;;;;18.10;46.50;;;;;;5036497;28;20021;-62
2021/03/20 06:52:21;;;;;;;14.80;8.48;;;18.00;46.60;;;;;;5035884;28;19905;-62
2021/03/20 06:55:12;;;;;;;17.30;8.93;;;17.90;46.70;;;;;;5035751;28;20052;-62
2021/03/20 06:57:38;;;;;;;17.63;9.10;;;17.90;46.80;;;;;;5004861;28;20100;-62
2021/03/20 07:00:24;;;;;;;15.15;8.68;;;17.80;47.00;;;;;;5035885;28;20060;-62
2021/03/20 07:02:59;;;;;;;14.45;8.90;;;17.70;47.00;;;;;;5035680;28;20041;-62
2021/03/20 07:05:45;;;;;;;12.75;7.18;;;17.70;47.10;;;;;;5035744;28;20032;-62
2021/03/20 07:08:44;;;;;;;16.27;8.32;;;17.70;47.20;;;;;;5035952;28;20095;-62
2021/03/20 07:11:22;;;;;;;14.18;7.75;;;17.60;47.20;;;;;;5035733;28;20021;-62
2021/03/20 07:13:52;;;;;;;15.32;7.90;;;17.60;47.40;;;;;;5035735;28;20130;-62
2021/03/20 07:16:21;;;;;;;14.57;8.40;;;17.60;47.40;;;;;;5034956;28;20497;-62
2021/03/20 07:18:52;;;;;;;12.40;7.60;;;17.60;47.50;;;;;;5034640;28;20033;-62
2021/03/20 07:21:29;;;;;;;14.48;7.70;;;17.50;47.50;;;;;;5035481;28;20029;-63
2021/03/20 07:24:15;;;;;;;12.70;7.20;;;17.50;47.60;;;;;;5035296;28;20040;-62
2021/03/20 07:27:00;;;;;;;11.57;7.53;;;17.50;48.20;;;;;;5035237;28;20033;-62
2021/03/20 07:30:07;;;;;;;12.05;7.80;;;17.50;47.70;;;;;;5035347;28;20029;-62
2021/03/20 07:32:36;;;;;;;15.00;8.65;;;17.50;47.70;;;;;;5022102;28;20098;-62
2021/03/20 07:35:20;;;;;;;14.15;7.60;;;17.40;47.80;;;;;;5035351;28;20041;-62
2021/03/20 07:37:48;;;;;;;14.70;8.43;;;17.40;47.80;;;;;;5035130;28;20029;-62
2021/03/20 07:40:34;;;;;;;12.02;7.32;;;17.40;47.80;;;;;;5034980;28;20068;-62
2021/03/20 07:43:15;;;;;;;13.73;7.78;;;17.40;47.80;;;;;;5034660;28;20091;-62
2021/03/20 07:45:41;;;;;;;;;;;17.40;47.90;;;;;;5035382;28;20524;-62
2021/03/20 07:48:26;;;;;;;11.25;6.65;;;17.40;48.00;;;;;;5035000;28;19908;-62
2021/03/20 07:50:57;;;;;;;11.15;7.05;;;17.40;47.80;;;;;;5034761;28;20090;-62
2021/03/20 07:53:24;;;;;;;12.48;7.07;;;17.50;47.60;;;;;;5034560;28;20096;-62
2021/03/20 07:56:15;;;;;;;13.38;6.90;;;17.60;47.60;;;;;;5034757;28;20409;-62
2021/03/20 07:58:49;;;;;;;;;;;17.60;47.50;;;;;;5035188;28;20095;-62
2021/03/20 08:01:30;;;;;;;10.18;6.45;;;17.60;47.50;;;;;;5034589;28;19905;-62
2021/03/20 08:03:59;;;;;;;11.43;6.30;;;17.60;47.50;;;;;;5034544;28;20528;-62
2021/03/20 08:06:43;;;;;;;11.13;7.23;;;17.50;47.60;;;;;;5034755;28;20079;-62
2021/03/20 08:09:17;;;;;;;12.38;6.53;;;17.40;47.80;;;;;;5034528;28;20039;-62
2021/03/20 08:11:48;;;;;;;10.80;6.60;;;17.40;47.90;;;;;;5034288;28;20061;-62
2021/03/20 08:14:35;;;;;;;12.30;7.40;;;17.30;47.90;;;;;;5034669;28;20075;-62
2021/03/20 08:17:01;;;;;;;14.98;6.97;;;17.30;48.10;;;;;;5028557;28;20029;-62
2021/03/20 08:19:31;;;;;;;11.95;6.60;;;17.30;48.10;;;;;;5046151;28;20036;-62
2021/03/20 08:22:21;;;;;;;13.55;7.47;;;17.30;48.30;;;;;;5053835;28;20040;-62
2021/03/20 08:25:11;;;;;;;14.05;6.93;;;17.30;48.30;;;;;;5054357;28;20439;-63
2021/03/20 08:28:10;;;;;;;11.90;5.93;;;17.30;47.60;;;;;;5053866;28;20368;-65
2021/03/20 08:31:14;;;;;;;15.70;6.75;;;17.30;48.30;;;;;;5053864;28;20376;-62
2021/03/20 08:33:40;;;;;;;21.23;7.90;;;17.40;49.50;;;;;;5053963;28;20025;-66
2021/03/20 08:36:18;;;;;;;20.95;9.13;;;17.30;47.10;;;;;;5053940;28;20070;-67
2021/03/20 08:39:13;;;;;;;16.65;8.18;;;17.20;44.00;;;;;;5053717;28;20057;-65
2021/03/20 08:42:02;;;;;;;14.38;7.43;;;17.10;43.20;;;;;;5053733;28;20056;-66
2021/03/20 08:44:45;;;;;;;13.85;7.82;;;17.10;41.60;;;;;;5053605;28;20052;-64
2021/03/20 08:47:26;;;;;;;16.38;7.22;;;17.20;42.20;;;;;;5042044;28;20037;-64
2021/03/20 08:49:55;;;;;;;;;;;17.30;42.10;;;;;;5034159;28;20461;-68
2021/03/20 08:52:30;;;;;;;14.57;6.78;;;17.50;42.50;;;;;;5037219;28;20059;-64
2021/03/20 08:55:01;;;;;;;37.03;23.20;;;17.60;42.50;;;;;;5040499;28;20064;-65
2021/03/20 08:58:11;;;;;;;44.20;25.50;;;17.80;42.10;;;;;;5043039;28;20021;-63
2021/03/20 09:00:54;;;;;;;55.00;36.88;;;18.10;41.00;;;;;;5014866;28;20125;-64
2021/03/20 09:03:27;;;;;;;83.13;47.38;;;18.30;40.70;;;;;;5014275;28;20029;-62
2021/03/20 09:06:03;;;;;;;83.32;49.33;;;18.40;40.10;;;;;;5033625;28;20034;-64
2021/03/20 09:08:34;;;;;;;96.30;58.72;;;18.50;40.10;;;;;;5034290;28;20068;-77
2021/03/20 09:11:45;;;;;;;127.22;72.22;;;18.40;39.50;;;;;;5034122;28;20108;-70
2021/03/20 09:14:21;;;;;;;115.00;66.32;;;18.50;39.20;;;;;;5014845;28;20068;-70
2021/03/20 09:16:54;;;;;;;84.40;50.67;;;18.40;39.20;;;;;;5034246;28;20029;-70
2021/03/20 09:19:23;;;;;;;60.72;38.78;;;18.40;39.10;;;;;;5034077;28;20091;-70
2021/03/20 09:21:50;;;;;;;55.42;32.97;;;18.30;38.30;;;;;;5033903;28;20033;-74
2021/03/20 09:24:21;;;;;;;46.28;27.58;;;18.30;38.00;;;;;;5033874;28;20033;-66
2021/03/20 09:26:49;;;;;;;;;;;18.30;38.10;;;;;;5034279;28;20473;-64
2021/03/20 09:29:22;;;;;;;36.00;22.00;;;18.20;37.80;;;;;;5033979;28;19905;-68
2021/03/20 09:32:19;;;;;;;33.90;20.73;;;18.20;37.70;;;;;;5034038;28;20477;-61
2021/03/20 09:34:48;;;;;;;37.08;18.52;;;18.20;38.40;;;;;;5033782;28;20034;-63
2021/03/20 09:37:16;;;;;;;31.73;19.02;;;18.20;38.50;;;;;;5033579;28;20022;-64
2021/03/20 09:39:45;;;;;;;34.08;16.48;;;18.20;38.90;;;;;;5033110;28;20033;-64
2021/03/20 09:42:31;;;;;;;28.13;16.05;;;18.30;39.00;;;;;;5033721;28;20083;-64
2021/03/20 09:45:06;;;;;;;25.58;15.48;;;18.40;39.80;;;;;;5033861;28;20037;-64
2021/03/20 09:47:34;;;;;;;25.13;14.80;;;18.40;39.10;;;;;;5033450;28;20100;-64
2021/03/20 09:50:05;;;;;;;31.83;14.55;;;18.50;39.20;;;;;;5034475;28;20029;-64
2021/03/20 09:52:43;;;;;;;25.92;12.68;;;18.50;39.40;;;;;;5033712;28;20401;-63
2021/03/20 09:55:30;;;;;;;21.95;12.45;;;18.40;39.50;;;;;;5033705;28;20045;-64
2021/03/20 09:57:57;;;;;;;22.90;13.10;;;18.40;40.70;;;;;;5033604;28;20473;-64
2021/03/20 10:00:44;;;;;;;19.75;11.05;;;18.50;40.00;;;;;;5033599;28;20029;-63
2021/03/20 10:03:10;;;;;;;22.92;11.90;;;18.60;39.90;;;;;;5034033;28;20469;-64
2021/03/20 10:05:36;;;;;;;25.02;11.88;;;18.60;39.80;;;;;;5033588;28;20030;-64
2021/03/20 10:08:17;;;;;;;20.80;12.40;;;18.70;39.80;;;;;;5033502;28;20022;-64
2021/03/20 10:10:55;;;;;;;17.38;10.98;;;18.70;40.10;;;;;;5033469;28;20428;-64
2021/03/20 10:13:40;;;;;;;22.25;11.55;;;18.70;40.00;;;;;;5033518;28;20120;-64
2021/03/20 10:16:24;;;;;;;15.77;9.88;;;18.60;40.00;;;;;;5033623;28;20434;-64
2021/03/20 10:19:07;;;;;;;21.55;10.90;;;18.60;40.10;;;;;;5033611;28;20036;-64
2021/03/20 10:21:33;;;;;;;18.98;10.05;;;18.50;40.20;;;;;;5033394;28;20108;-63
2021/03/20 10:24:14;;;;;;;16.73;10.75;;;18.50;40.20;;;;;;5033071;28;20069;-63
2021/03/20 10:27:03;;;;;;;16.20;8.88;;;18.40;40.30;;;;;;5033998;28;20037;-64
2021/03/20 10:29:38;;;;;;;15.93;8.70;;;18.40;40.30;;;;;;5027744;28;20073;-64
2021/03/20 10:32:17;;;;;;;17.20;8.82;;;18.40;40.40;;;;;;5033215;28;20033;-64
2021/03/20 10:34:50;;;;;;;18.35;8.77;;;18.40;40.60;;;;;;5033208;28;20045;-64
2021/03/20 10:37:18;;;;;;;15.40;8.40;;;18.30;40.70;;;;;;5031647;28;20460;-64
2021/03/20 10:39:47;;;;;;;15.20;9.15;;;18.30;40.90;;;;;;5033265;28;20091;-64
2021/03/20 10:42:16;;;;;;;12.98;8.35;;;18.30;40.90;;;;;;5033107;28;20374;-65
2021/03/20 10:44:46;;;;;;;15.43;7.68;;;18.30;41.00;;;;;;5033514;28;20095;-64
2021/03/20 10:47:29;;;;;;;15.00;7.88;;;18.20;41.10;;;;;;5033278;28;20053;-64
2021/03/20 10:50:24;;;;;;;12.65;7.32;;;18.20;40.90;;;;;;5033132;28;20030;-64
2021/03/20 10:52:51;;;;;;;12.38;6.90;;;18.20;41.10;;;;;;5035190;28;20362;-64
2021/03/20 10:55:24;;;;;;;11.63;6.75;;;18.20;41.10;;;;;;5036914;28;20056;-64
2021/03/20 10:57:53;;;;;;;13.82;7.07;;;18.10;41.00;;;;;;5036758;28;20108;-64
2021/03/20 11:00:41;;;;;;;13.95;6.38;;;18.20;41.50;;;;;;5036435;28;20030;-64
2021/03/20 11:03:14;;;;;;;14.35;6.43;;;18.20;40.60;;;;;;5036715;28;20045;-62
2021/03/20 11:05:42;;;;;;;11.38;5.35;;;18.20;39.20;;;;;;5036689;28;20040;-65
2021/03/20 11:08:13;;;;;;;9.18;3.97;;;18.30;38.90;;;;;;5036640;28;20029;-67
2021/03/20 11:10:43;;;;;;;11.65;4.75;;;18.10;36.40;;;;;;5034615;28;20079;-67
2021/03/20 11:13:35;;;;;;;9.38;4.30;;;18.00;35.50;;;;;;5036197;28;20025;-64
2021/03/20 11:16:14;;;;;;;8.88;3.88;;;17.90;35.50;;;;;;5036689;28;20393;-64
2021/03/20 11:18:44;;;;;;;13.50;3.78;;;18.00;35.40;;;;;;5036733;28;20038;-66
2021/03/20 11:21:17;;;;;;;13.32;3.72;;;17.90;34.70;;;;;;5036665;28;20032;-64
2021/03/20 11:23:43;;;;;;;45.10;31.58;;;17.80;35.20;;;;;;5036397;28;20158;-66
2021/03/20 11:26:13;;;;;;;64.25;38.53;;;17.70;34.90;;;;;;5036139;28;20457;-67
2021/03/20 11:28:40;;;;;;;60.90;39.38;;;17.70;34.70;;;;;;5036331;28;20358;-66
2021/03/20 11:31:07;;;;;;;93.47;55.15;;;17.60;33.90;;;;;;5036107;28;20034;-65
2021/03/20 11:33:38;;;;;;;59.95;36.03;;;17.60;36.90;;;;;;5033008;28;20497;-65
2021/03/20 11:36:09;;;;;;;51.60;30.08;;;17.60;38.00;;;;;;5035328;28;20037;-65
2021/03/20 11:38:35;;;;;;;108.57;61.72;;;17.60;37.00;;;;;;5036151;28;20029;-66
2021/03/20 11:41:01;;;;;;;110.20;63.90;;;17.60;38.80;;;;;;5035127;28;20488;-64
2021/03/20 11:43:28;;;;;;;95.93;57.55;;;17.70;38.10;;;;;;5035719;28;20076;-59
2021/03/20 11:46:11;;;;;;;79.85;48.30;;;17.80;41.90;;;;;;5035275;28;20035;-68
2021/03/20 11:48:43;;;;;;;55.78;35.30;;;17.90;39.30;;;;;;5035292;28;20535;-62
2021/03/20 11:51:21;;;;;;;51.45;30.65;;;18.10;37.70;;;;;;5036180;28;20033;-66
2021/03/20 11:53:50;;;;;;;68.45;41.05;;;18.10;36.40;;;;;;5035332;28;20553;-63
2021/03/20 11:56:17;;;;;;;123.10;76.28;;;18.10;36.30;;;;;;5034650;28;20029;-64
2021/03/20 11:59:27;;;;;;;200.93;116.25;;;18.10;35.60;;;;;;5035061;28;20424;-60
2021/03/20 12:01:53;;;;;;;152.68;94.43;;;18.10;34.60;;;;;;5029816;28;20045;-61
2021/03/20 12:04:25;;;;;;;176.32;101.55;;;18.20;33.80;;;;;;5033115;28;20045;-62
2021/03/20 12:06:52;;;;;;;160.55;96.43;;;18.30;33.20;;;;;;5034271;28;20108;-62
2021/03/20 12:09:24;;;;;;;172.95;101.30;;;18.40;32.00;;;;;;5038901;28;20491;-61
2021/03/20 12:11:51;;;;;;;168.18;96.07;;;18.50;32.80;;;;;;5043755;28;20048;-60
2021/03/20 12:14:28;;;;;;;141.50;84.07;;;18.50;32.80;;;;;;5045714;28;20029;-62
2021/03/20 12:17:09;;;;;;;122.75;72.18;;;18.50;33.10;;;;;;5045643;28;20116;-63
2021/03/20 12:20:04;;;;;;;99.05;58.88;;;18.40;32.20;;;;;;5045455;28;20067;-61
2021/03/20 12:22:50;;;;;;;98.43;57.97;;;18.40;31.60;;;;;;5029461;28;20064;-64
2021/03/20 12:25:35;;;;;;;88.65;52.90;;;18.30;32.30;;;;;;5038200;28;20084;-61
2021/03/20 12:28:31;;;;;;;95.68;55.83;;;18.30;32.60;;;;;;5042658;28;20029;-62
2021/03/20 12:31:18;;;;;;;94.97;53.40;;;18.30;33.00;;;;;;5044200;28;20021;-65
2021/03/20 12:33:51;;;;;;;84.75;48.05;;;18.30;33.40;;;;;;5050075;28;20143;-67
2021/03/20 12:36:47;;;;;;;85.28;50.72;;;18.20;34.10;;;;;;5048468;28;20033;-65
2021/03/20 12:39:19;;;;;;;86.68;50.30;;;18.30;34.20;;;;;;5035924;28;20403;-64
2021/03/20 12:41:48;;;;;;;81.00;48.22;;;18.20;34.70;;;;;;5041633;28;20021;-71
2021/03/20 12:44:26;;;;;;;80.40;46.03;;;18.20;35.10;;;;;;5044012;28;20040;-69
2021/03/20 12:47:03;;;;;;;72.60;43.15;;;18.20;35.30;;;;;;5044040;28;20091;-66
2021/03/20 12:49:35;;;;;;;100.88;56.13;;;18.20;35.50;;;;;;5044244;28;20029;-65
2021/03/20 12:52:11;;;;;;;107.60;63.20;;;18.20;35.80;;;;;;5041116;28;20018;-66
2021/03/20 12:54:42;;;;;;;115.63;68.32;;;18.10;36.00;;;;;;5039126;28;20069;-66
2021/03/20 12:57:23;;;;;;;137.32;79.47;;;18.10;36.10;;;;;;5042347;28;20461;-66
2021/03/20 12:59:50;;;;;;;163.80;93.72;;;18.10;36.10;;;;;;5043391;28;20021;-65
2021/03/20 13:02:17;;;;;;;155.50;91.28;;;18.10;36.30;;;;;;5038980;28;20022;-66
2021/03/20 13:04:42;;;;;;;158.50;89.93;;;18.20;36.20;;;;;;5042939;28;20037;-67
2021/03/20 13:07:09;;;;;;;151.20;89.82;;;18.20;35.90;;;;;;5043305;28;20079;-67
2021/03/20 13:09:38;;;;;;;145.43;87.57;;;18.30;35.90;;;;;;5053033;28;20094;-67
2021/03/20 13:12:06;;;;;;;145.77;86.97;;;18.30;35.90;;;;;;5053201;28;20025;-68
2021/03/20 13:14:33;;;;;;;140.60;80.90;;;18.20;36.10;;;;;;5053206;28;20535;-67